KSNA/SNA METAR and TAF weather

Enter ICAO airport designator
Station Type Date Time Source
KSNA METAR 2020/01/21 08:53 UTC NOAA

KSNA 210853Z AUTO 00000KT 10SM BKN070 OVC100 16/11 A3010 RMK AO2 SLP193 60000 T01560111 50008


Station Type Date Time Source
KSNA Decoded METAR 2020/01/21 08:53 UTC NOAA

SANTA ANA WAYNE ORANGE CTY, CA, United States (KSNA) 33-41N 117-52W 15M
Jan 21, 2020 - 03:53 AM EST / 2020.01.21 0853 UTC
Wind: Calm:0
Visibility: 10 mile(s):0
Sky conditions: overcast
Temperature: 60.1 F (15.6 C)
Dew Point: 52.0 F (11.1 C)
Relative Humidity: 74%
Pressure (altimeter): 30.1 in. Hg (1019 hPa)
Pressure tendency: 0.02 inches (0.8 hPa) higher than three hours ago
ob: KSNA 210853Z AUTO 00000KT 10SM BKN070 OVC100 16/11 A3010 RMK AO2 SLP193 60000 T01560111 50008
cycle: 9

Station Type Date Time Source
KSNA TAF 2020/01/21 06:42 UTC NOAA

TAF KSNA 210540Z 2106/2206 VRB04KT P6SM VCSH SCT015 OVC080
FM211100 VRB03KT P6SM SCT040

Example: see airport list